San Antonio, Texas
Traffic Map
Current Weather Conditions
San Antonio, Texas
Clear
Clear
31°
Feels Like: 35°
Wind Chill: 30° Ceiling: Unl
Heat Index: 35° Visibility: 10mi
Dew Point: 23° Wind: 20mph
Humidity: 64% Direction: 130° (SE)
Pressure: 29.99in Gusts: 26mph
Raw Report DataKSKF 220258Z AUTO 13017G23KT 10SM CLR 31/23 A2999 RMK AO2 PK WND 15026/28 SLP147 T03050229 52020 $
Traffic Incident Summary
Active as of:
Severity:
Category:
InformationThere was an issue retrieving the traffic information for this location. Please try a different location or try again shortly.
Advertisements
Track Severe Weather on mobile